首页
METAR-TAF:

METAR-TAF

机场 :

剑桥湾, 努那武特, 加拿大

纬度: 69-06N, 经度: 105-07W, 海拔: 23米

当前天气观测

该预报发布于51分钟前的21:00 UTC
风速7节,风向北转东北
温度 0°C
湿度 74%
气压 1027 hPa
能見度: 24.1公里
天空无云

METAR: CYCB 262100Z 03007KT 15SM SKC M00/M04 A3034 RMK SLP279

时间: 15:51 (21:51 UTC)

预报

该预报发布于3小时和11分钟前的18:40 UTC
预报有效从26日的 19点(UTC)到 27日的 07点(UTC)
风速10节,风向东北
能見度: 10公里
少量云层高于200英尺

TAF: CYCB 261840Z 2619/2707 04010KT P6SM FEW002 RMK NXT FCST BY 270100Z

超过4000个机场的气象观测和天气预报(METAR&TAF报告)。

可查询的气象台以黄色和红色小点在地图上表示。

将鼠标移到小点上方,可查看气象台名称。

然后点击查看天气观测和预报。

如需切换地图:点击带黑十字的绿色按钮放大地图;点击带横线的绿色按钮缩小地图;或者点击绿色箭头查看邻近地区的地图。


METAR-TAF: